createdAt,value
2022-10-23T00:04:57.112Z,84.94
2022-10-23T00:09:58.339Z,85.69
2022-10-23T00:14:59.887Z,85.23
2022-10-23T00:20:01.122Z,85.88
2022-10-23T00:25:02.344Z,86.95
2022-10-23T00:30:03.607Z,86.71
2022-10-23T00:35:04.817Z,86.02
2022-10-23T00:40:06.542Z,86.32
2022-10-23T00:45:07.813Z,85.31
2022-10-23T00:50:09.041Z,85.41
2022-10-23T00:55:10.314Z,85.15
2022-10-23T01:00:11.523Z,85.10
2022-10-23T01:05:12.767Z,85.10
2022-10-23T01:10:14.007Z,84.53
2022-10-23T01:15:15.265Z,84.53
2022-10-23T01:20:16.707Z,85.01
2022-10-23T01:25:17.947Z,86.13
2022-10-23T01:30:19.162Z,85.74
2022-10-23T01:35:20.381Z,85.17
2022-10-23T01:40:21.597Z,85.85
2022-10-23T01:45:22.909Z,86.47
2022-10-23T01:50:24.134Z,88.07
2022-10-23T01:55:25.331Z,88.60
2022-10-23T02:00:26.543Z,89.32
2022-10-23T02:05:27.764Z,88.14
2022-10-23T02:10:28.968Z,89.15
2022-10-23T02:15:30.188Z,88.54
2022-10-23T02:20:31.467Z,88.94
2022-10-23T02:25:32.670Z,89.00
2022-10-23T02:30:34.797Z,89.97
2022-10-23T02:35:36.339Z,90.61
2022-10-23T02:40:37.958Z,90.16
2022-10-23T02:50:40.826Z,90.68
2022-10-23T02:55:42.350Z,90.20
2022-10-23T03:00:43.925Z,88.81
2022-10-23T03:05:45.647Z,87.40
2022-10-23T03:15:48.527Z,87.41
2022-10-23T03:20:49.869Z,88.09
2022-10-23T03:25:51.368Z,88.68
2022-10-23T03:30:53.370Z,87.68
2022-10-23T03:35:55.097Z,87.34
2022-10-23T03:40:56.800Z,87.71
2022-10-23T03:45:58.377Z,88.74
2022-10-23T03:50:59.887Z,88.90
2022-10-23T03:56:01.704Z,88.31
2022-10-23T04:01:03.327Z,86.91
2022-10-23T04:06:05.058Z,87.21
2022-10-23T04:11:12.733Z,88.08
2022-10-23T04:16:14.648Z,88.45
2022-10-23T04:21:16.118Z,88.43
2022-10-23T04:26:17.361Z,87.73
2022-10-23T04:31:18.609Z,86.72
2022-10-23T04:36:19.954Z,86.39
2022-10-23T04:41:21.364Z,86.11
2022-10-23T04:46:22.648Z,87.19
2022-10-23T04:51:23.915Z,86.79
2022-10-23T04:56:25.214Z,86.01
2022-10-23T05:01:26.533Z,86.62
2022-10-23T05:06:27.858Z,87.81
2022-10-23T05:11:29.080Z,86.88
2022-10-23T05:16:30.454Z,85.51
2022-10-23T05:21:31.912Z,85.51
2022-10-23T05:26:33.339Z,84.71
2022-10-23T05:31:34.625Z,84.98
2022-10-23T05:36:36.025Z,85.28
2022-10-23T05:41:37.531Z,85.65
2022-10-23T05:46:38.917Z,85.52
2022-10-23T05:51:40.434Z,84.87
2022-10-23T05:56:41.939Z,84.93
2022-10-23T06:01:43.478Z,84.98
2022-10-23T06:06:45.131Z,84.85
2022-10-23T06:11:46.727Z,86.22
2022-10-23T06:16:48.623Z,85.81
2022-10-23T06:21:50.346Z,86.29
2022-10-23T06:26:53.843Z,88.71
2022-10-23T06:31:55.869Z,89.53
2022-10-23T06:36:58.123Z,89.72
2022-10-23T06:41:59.998Z,89.98
2022-10-23T06:47:02.799Z,90.73
2022-10-23T06:52:04.482Z,89.47
2022-10-23T06:57:06.368Z,89.08
2022-10-23T07:02:08.082Z,89.99
2022-10-23T07:07:13.267Z,89.96
2022-10-23T07:12:15.464Z,90.35
2022-10-23T07:17:17.238Z,90.24
2022-10-23T07:22:19.187Z,89.37
2022-10-23T07:27:20.956Z,89.16
2022-10-23T07:32:24.335Z,88.85
2022-10-23T07:37:26.104Z,89.31
2022-10-23T07:42:27.926Z,90.84
2022-10-23T07:47:30.191Z,90.68
2022-10-23T07:52:35.083Z,90.74
2022-10-23T07:57:38.176Z,89.87
2022-10-23T08:02:40.021Z,88.91
2022-10-23T08:07:42.095Z,89.06
2022-10-23T08:12:43.535Z,88.16
2022-10-23T08:17:45.144Z,87.41
2022-10-23T08:22:46.856Z,87.73
2022-10-23T08:27:50.365Z,87.48
2022-10-23T08:32:52.521Z,87.63
2022-10-23T08:37:53.768Z,87.81
2022-10-23T08:42:55.006Z,88.59
2022-10-23T08:47:57.425Z,88.29
2022-10-23T08:52:58.787Z,88.81
2022-10-23T08:58:00.033Z,89.92
2022-10-23T09:03:01.223Z,89.76
2022-10-23T09:08:02.504Z,89.59
2022-10-23T09:13:03.964Z,90.14
2022-10-23T09:18:06.808Z,90.53
2022-10-23T09:23:08.147Z,89.77
2022-10-23T09:33:28.169Z,89.27
2022-10-23T09:38:29.481Z,90.08
2022-10-23T09:43:30.869Z,89.42
2022-10-23T09:48:32.183Z,89.22
2022-10-23T09:53:33.403Z,88.08
2022-10-23T09:58:34.744Z,87.19
2022-10-23T10:03:36.021Z,86.37
2022-10-23T10:08:37.644Z,86.74
2022-10-23T10:13:39.546Z,86.83
2022-10-23T10:18:40.887Z,86.22
2022-10-23T10:23:42.263Z,85.03
2022-10-23T10:28:43.587Z,85.47
2022-10-23T10:33:44.799Z,84.58
2022-10-23T10:38:46.061Z,84.00
2022-10-23T10:43:47.278Z,83.70
2022-10-23T10:48:48.538Z,82.24
2022-10-23T10:53:49.799Z,81.45
2022-10-23T10:58:51.041Z,80.52
2022-10-23T11:03:52.281Z,80.85
2022-10-23T11:08:57.915Z,79.91
2022-10-23T11:14:10.418Z,79.92
2022-10-23T11:19:14.088Z,79.41
2022-10-23T11:24:15.586Z,79.10
2022-10-23T11:29:18.867Z,78.28
2022-10-23T11:34:20.098Z,78.02
2022-10-23T11:39:21.343Z,78.86
2022-10-23T11:44:22.555Z,77.09
2022-10-23T11:49:24.147Z,74.64
2022-10-23T11:54:27.095Z,72.99
2022-10-23T11:59:28.421Z,73.19
2022-10-23T12:04:29.931Z,72.77
2022-10-23T12:09:31.276Z,72.07
2022-10-23T12:14:32.587Z,71.70
2022-10-23T12:19:33.867Z,71.83
2022-10-23T12:24:39.597Z,71.52
2022-10-23T12:29:41.837Z,73.17
2022-10-23T12:34:43.057Z,72.20
2022-10-23T12:39:44.382Z,71.20
2022-10-23T12:44:45.573Z,69.45
2022-10-23T12:49:46.790Z,70.58
2022-10-23T12:54:50.623Z,71.29
2022-10-23T12:59:51.831Z,69.89
2022-10-23T13:04:53.064Z,66.33
2022-10-23T13:09:54.331Z,66.34
2022-10-23T13:14:55.572Z,67.02
2022-10-23T13:19:56.796Z,65.97
2022-10-23T13:24:58.148Z,67.48
2022-10-23T13:29:59.397Z,66.99
2022-10-23T13:35:20.811Z,68.63
2022-10-23T13:40:23.592Z,69.16
2022-10-23T13:45:24.843Z,69.29
2022-10-23T13:50:26.046Z,68.42
2022-10-23T13:55:28.278Z,70.45
2022-10-23T14:00:29.502Z,69.84
2022-10-23T14:05:30.779Z,69.28
2022-10-23T14:10:31.982Z,69.84
2022-10-23T14:15:33.215Z,69.59
2022-10-23T14:20:34.564Z,70.03
2022-10-23T14:25:35.812Z,70.64
2022-10-23T14:30:37.458Z,70.93
2022-10-23T14:35:38.666Z,72.12
2022-10-23T14:40:39.872Z,73.98
2022-10-23T14:45:41.140Z,70.13
2022-10-23T14:50:42.359Z,71.17
2022-10-23T14:55:43.586Z,70.86
2022-10-23T15:00:44.791Z,71.48
2022-10-23T15:05:45.993Z,71.61
2022-10-23T15:10:47.211Z,71.98
2022-10-23T15:15:48.441Z,72.63
2022-10-23T15:20:49.640Z,72.73
2022-10-23T15:25:50.847Z,73.17
2022-10-23T15:30:52.060Z,73.61
2022-10-23T15:35:53.294Z,73.41
2022-10-23T15:40:54.547Z,73.40
2022-10-23T15:45:55.857Z,73.23
2022-10-23T15:50:57.199Z,73.11
2022-10-23T15:55:58.836Z,73.35
2022-10-23T16:01:02.964Z,74.12
2022-10-23T16:06:04.267Z,73.90
2022-10-23T16:11:05.527Z,75.19
2022-10-23T16:16:06.740Z,74.48
2022-10-23T16:21:07.970Z,74.72
2022-10-23T16:26:09.433Z,74.70
2022-10-23T16:31:10.688Z,75.43
2022-10-23T16:36:11.899Z,76.79
2022-10-23T16:41:13.120Z,75.65
2022-10-23T16:46:14.367Z,75.60
2022-10-23T16:51:15.584Z,75.57
2022-10-23T16:56:16.836Z,75.92
2022-10-23T17:01:18.124Z,75.91
2022-10-23T17:06:19.443Z,75.91
2022-10-23T17:11:20.649Z,76.24
2022-10-23T17:16:21.991Z,76.91
2022-10-23T17:21:23.239Z,76.64
2022-10-23T17:26:24.499Z,76.91
2022-10-23T17:31:25.715Z,77.23
2022-10-23T17:36:26.929Z,77.61
2022-10-23T17:41:28.126Z,77.28
2022-10-23T17:46:29.357Z,77.33
2022-10-23T17:51:30.579Z,77.76
2022-10-23T17:56:31.783Z,77.43
2022-10-23T18:01:33.142Z,77.61
2022-10-23T18:06:34.432Z,77.05
2022-10-23T18:11:35.662Z,76.08
2022-10-23T18:16:37.195Z,76.03
2022-10-23T18:21:40.051Z,75.27
2022-10-23T18:26:41.278Z,75.62
2022-10-23T18:31:42.489Z,75.35
2022-10-23T18:36:43.770Z,75.20
2022-10-23T18:41:45.041Z,74.69
2022-10-23T18:46:46.258Z,74.11
2022-10-23T18:51:49.715Z,74.69
2022-10-23T18:56:51.018Z,77.37
2022-10-23T19:01:52.496Z,76.48
2022-10-23T19:06:53.891Z,76.74
2022-10-23T19:11:55.154Z,75.78
2022-10-23T19:16:56.366Z,74.61
2022-10-23T19:21:57.631Z,74.56
2022-10-23T19:26:58.841Z,73.78
2022-10-23T19:32:00.123Z,74.39
2022-10-23T19:37:01.428Z,74.21
2022-10-23T19:42:02.839Z,73.40
2022-10-23T19:47:04.261Z,73.32
2022-10-23T19:52:05.488Z,73.18
2022-10-23T19:57:06.761Z,73.02
2022-10-23T20:02:08.186Z,73.21
2022-10-23T20:07:09.684Z,73.81
2022-10-23T20:12:11.139Z,74.04
2022-10-23T20:17:12.509Z,73.17
2022-10-23T20:22:13.780Z,73.92
2022-10-23T20:27:15.228Z,74.09
2022-10-23T20:32:16.791Z,74.76
2022-10-23T20:37:18.072Z,75.51
2022-10-23T20:42:19.317Z,76.74
2022-10-23T20:47:20.607Z,76.84
2022-10-23T20:52:25.068Z,76.49
2022-10-23T20:57:26.302Z,76.66
2022-10-23T21:02:27.606Z,75.05
2022-10-23T21:07:28.978Z,74.45
2022-10-23T21:12:30.267Z,73.73
2022-10-23T21:17:35.345Z,76.28
2022-10-23T21:22:37.194Z,77.46
2022-10-23T21:27:38.522Z,77.57
2022-10-23T21:32:40.327Z,77.49
2022-10-23T21:37:41.650Z,76.76
2022-10-23T21:42:43.117Z,75.74
2022-10-23T21:47:44.532Z,75.27
2022-10-23T21:52:46.339Z,76.47
2022-10-23T21:57:47.814Z,76.05
2022-10-23T22:02:49.199Z,74.71
2022-10-23T22:07:50.572Z,74.91
2022-10-23T22:12:51.992Z,74.78
2022-10-23T22:17:53.264Z,75.27
2022-10-23T22:22:54.498Z,75.44
2022-10-23T22:27:55.746Z,76.42
2022-10-23T22:32:57.033Z,75.68
2022-10-23T22:37:58.821Z,76.13
2022-10-23T22:43:00.179Z,76.06
2022-10-23T22:48:01.433Z,77.43
2022-10-23T22:53:02.704Z,77.92
2022-10-23T22:58:04.054Z,79.16
2022-10-23T23:03:05.357Z,79.10
2022-10-23T23:08:06.628Z,79.76
2022-10-23T23:13:07.859Z,79.96
2022-10-23T23:18:09.204Z,81.15
2022-10-23T23:23:11.726Z,81.68
2022-10-23T23:28:12.975Z,82.94
2022-10-23T23:33:14.204Z,83.92
2022-10-23T23:38:15.653Z,83.70
2022-10-23T23:43:16.914Z,84.87
2022-10-23T23:48:18.144Z,85.64
2022-10-23T23:53:19.433Z,86.04
2022-10-23T23:58:20.644Z,88.50
